Cork, Kentucky
Current Conditions -  °F | °C
As of 12:56 AM on Thursday 27 Nov 2014 (Local Time) from KEKQ Reporting Station
Light Snow Light Snow  
Wind Chill: 35°   Ceiling: 600
Heat Index: 35°   Visibility: 5mi
Dew Point: 34°   Wind: 0mph
Humidity: 97%   Direction: NA
Pressure: 30.05"   Gusts: NA
Location:  36.9886°N, 85.5829°W
Report Text: KEKQ 270656Z AUTO 00000KT 5SM -SN BR BKN006 OVC011 02/01 A3005 RMK AO2 T00160011 CIG 003V008 P0001 SLP181
Loading
Personal Weather Stations






























Interactive Weather Map New forecast layout! Learn more

10-Day Weather Forecast

Advertisements
Track Severe Weather on mobile